createdAt,value
2018-03-06T00:00:03.548Z,8.30
2018-03-06T00:01:07.928Z,9.00
2018-03-06T00:02:13.008Z,8.25
2018-03-06T00:03:17.045Z,8.10
2018-03-06T00:04:21.345Z,10.55
2018-03-06T00:05:26.238Z,8.77
2018-03-06T00:06:30.466Z,9.80
2018-03-06T00:07:34.521Z,8.80
2018-03-06T00:08:38.751Z,10.43
2018-03-06T00:09:42.838Z,9.55
2018-03-06T00:10:47.581Z,9.45
2018-03-06T00:11:52.416Z,8.55
2018-03-06T00:12:57.259Z,9.07
2018-03-06T00:14:01.286Z,8.57
2018-03-06T00:15:05.276Z,8.88
2018-03-06T00:16:09.437Z,10.35
2018-03-06T00:17:13.566Z,26.58
2018-03-06T00:18:17.522Z,19.45
2018-03-06T00:19:21.404Z,19.15
2018-03-06T00:20:25.389Z,14.00
2018-03-06T00:21:29.345Z,11.32
2018-03-06T00:22:33.241Z,10.75
2018-03-06T00:23:37.566Z,10.20
2018-03-06T00:24:41.445Z,12.25
2018-03-06T00:25:45.370Z,13.30
2018-03-06T00:26:49.610Z,12.60
2018-03-06T00:27:53.502Z,15.27
2018-03-06T00:28:57.354Z,10.80
2018-03-06T00:30:01.658Z,14.05
2018-03-06T00:31:06.402Z,10.70
2018-03-06T00:32:10.399Z,12.65
2018-03-06T00:33:14.296Z,11.93
2018-03-06T00:34:18.155Z,10.80
2018-03-06T00:35:22.043Z,10.60
2018-03-06T00:36:25.914Z,12.30
2018-03-06T00:37:30.006Z,11.70
2018-03-06T00:38:33.880Z,12.02
2018-03-06T00:39:37.918Z,11.50
2018-03-06T00:40:41.957Z,11.70
2018-03-06T00:41:47.051Z,11.93
2018-03-06T00:42:51.501Z,11.52
2018-03-06T00:43:55.672Z,11.75
2018-03-06T00:45:00.731Z,10.63
2018-03-06T00:46:04.786Z,11.50
2018-03-06T00:47:09.100Z,11.00
2018-03-06T00:48:13.400Z,11.20
2018-03-06T00:49:17.634Z,10.60
2018-03-06T00:50:22.541Z,11.98
2018-03-06T00:51:27.369Z,12.40
2018-03-06T00:52:31.422Z,11.70
2018-03-06T00:53:37.076Z,12.73
2018-03-06T00:54:41.363Z,12.37
2018-03-06T00:55:45.445Z,11.80
2018-03-06T00:56:49.760Z,11.50
2018-03-06T00:57:53.732Z,12.00
2018-03-06T00:58:57.914Z,11.65
2018-03-06T01:00:03.247Z,11.07
2018-03-06T01:01:07.343Z,13.80
2018-03-06T01:02:11.983Z,15.25
2018-03-06T01:03:16.640Z,13.23
2018-03-06T01:04:20.636Z,14.80
2018-03-06T01:06:27.188Z,14.30
2018-03-06T01:07:31.102Z,13.75
2018-03-06T01:08:36.212Z,15.20
2018-03-06T01:09:42.238Z,13.75
2018-03-06T01:10:46.365Z,15.18
2018-03-06T01:11:50.930Z,13.62
2018-03-06T01:12:56.385Z,14.27
2018-03-06T01:14:01.225Z,14.00
2018-03-06T01:15:06.468Z,17.05
2018-03-06T01:16:10.533Z,18.93
2018-03-06T01:17:15.257Z,16.30
2018-03-06T01:18:19.535Z,18.77
2018-03-06T01:19:23.765Z,16.73
2018-03-06T01:20:28.090Z,15.75
2018-03-06T01:21:32.843Z,14.98
2018-03-06T01:22:36.974Z,15.20
2018-03-06T01:23:41.794Z,14.65
2018-03-06T01:24:46.673Z,17.85
2018-03-06T01:25:50.663Z,16.92
2018-03-06T01:26:55.114Z,17.42
2018-03-06T01:27:59.649Z,16.50
2018-03-06T01:29:04.233Z,14.70
2018-03-06T01:30:08.577Z,14.20
2018-03-06T01:31:13.173Z,17.92
2018-03-06T01:32:17.296Z,15.65
2018-03-06T01:33:21.674Z,18.87
2018-03-06T01:34:26.592Z,16.50
2018-03-06T01:35:30.429Z,17.05
2018-03-06T01:36:34.823Z,16.73
2018-03-06T01:37:39.464Z,17.02
2018-03-06T01:38:43.384Z,16.10
2018-03-06T01:39:47.242Z,15.63
2018-03-06T01:40:51.130Z,14.98
2018-03-06T01:41:55.066Z,14.65
2018-03-06T01:42:59.407Z,15.30
2018-03-06T01:44:03.350Z,15.45
2018-03-06T01:45:07.309Z,16.30
2018-03-06T01:46:11.929Z,16.23
2018-03-06T01:47:15.818Z,15.98
2018-03-06T01:48:19.842Z,16.80
2018-03-06T01:49:24.511Z,16.37
2018-03-06T01:50:28.740Z,17.95
2018-03-06T01:51:42.254Z,15.87
2018-03-06T01:52:46.529Z,19.10
2018-03-06T01:53:50.874Z,18.17
2018-03-06T01:54:54.970Z,16.40
2018-03-06T01:55:59.124Z,15.70
2018-03-06T01:57:03.793Z,16.00
2018-03-06T01:58:07.823Z,15.95
2018-03-06T01:59:12.194Z,14.93
2018-03-06T02:00:16.222Z,15.48
2018-03-06T02:01:20.834Z,15.32
2018-03-06T02:02:26.150Z,16.47
2018-03-06T02:03:30.659Z,15.05
2018-03-06T02:04:35.253Z,16.02
2018-03-06T02:05:40.109Z,15.10
2018-03-06T02:06:44.805Z,15.80
2018-03-06T02:07:48.799Z,16.25
2018-03-06T02:08:53.129Z,15.88
2018-03-06T02:09:57.596Z,15.70
2018-03-06T02:11:01.638Z,16.10
2018-03-06T02:12:06.008Z,15.52
2018-03-06T02:13:10.234Z,15.70
2018-03-06T02:14:14.694Z,16.10
2018-03-06T02:15:19.001Z,16.35
2018-03-06T02:16:24.284Z,16.60
2018-03-06T02:17:28.188Z,15.97
2018-03-06T02:18:32.179Z,15.68
2018-03-06T02:19:36.488Z,15.70
2018-03-06T02:20:41.614Z,16.20
2018-03-06T02:21:45.523Z,18.43
2018-03-06T02:22:49.349Z,17.40
2018-03-06T02:23:53.233Z,16.45
2018-03-06T02:24:57.214Z,16.77
2018-03-06T02:26:01.711Z,16.15
2018-03-06T02:27:06.241Z,16.90
2018-03-06T02:28:10.296Z,16.93
2018-03-06T02:29:14.686Z,24.57
2018-03-06T02:30:18.891Z,20.17
2018-03-06T02:31:22.945Z,17.70
2018-03-06T02:32:26.968Z,16.27
2018-03-06T02:33:32.590Z,15.93
2018-03-06T02:34:37.497Z,18.23
2018-03-06T02:35:41.501Z,18.87
2018-03-06T02:36:45.818Z,18.42
2018-03-06T02:37:49.718Z,17.95
2018-03-06T02:38:54.522Z,18.23
2018-03-06T02:39:59.354Z,16.67
2018-03-06T02:41:03.230Z,17.15
2018-03-06T02:42:07.517Z,96.43
2018-03-06T02:43:11.649Z,41.80
2018-03-06T02:44:16.163Z,38.35
2018-03-06T02:45:20.406Z,29.00
2018-03-06T02:46:24.375Z,27.27
2018-03-06T02:47:28.674Z,22.95
2018-03-06T02:48:33.298Z,22.23
2018-03-06T02:49:37.497Z,21.10
2018-03-06T02:50:41.803Z,18.70
2018-03-06T02:51:46.470Z,18.50
2018-03-06T02:52:50.994Z,17.05
2018-03-06T02:53:55.615Z,19.55
2018-03-06T02:54:59.688Z,19.92
2018-03-06T02:56:03.805Z,17.80
2018-03-06T02:57:07.821Z,16.75
2018-03-06T02:58:12.163Z,17.35
2018-03-06T02:59:16.578Z,18.65
2018-03-06T03:00:22.198Z,19.90
2018-03-06T03:01:26.236Z,19.75
2018-03-06T03:02:30.198Z,18.60
2018-03-06T03:03:34.314Z,17.58
2018-03-06T03:04:39.023Z,20.00
2018-03-06T03:05:43.118Z,20.15
2018-03-06T03:06:47.161Z,19.37
2018-03-06T03:07:51.333Z,21.60
2018-03-06T03:08:55.426Z,21.25
2018-03-06T03:09:59.540Z,19.60
2018-03-06T03:12:32.780Z,18.70
2018-03-06T03:13:37.423Z,18.40
2018-03-06T03:14:41.747Z,19.37
2018-03-06T03:15:45.849Z,19.75
2018-03-06T03:16:49.952Z,20.75
2018-03-06T03:17:54.057Z,19.37
2018-03-06T03:18:59.175Z,18.90
2018-03-06T03:20:04.311Z,18.93
2018-03-06T03:21:08.136Z,19.80
2018-03-06T03:22:12.067Z,19.15
2018-03-06T03:23:16.206Z,18.60
2018-03-06T03:24:21.011Z,18.95
2018-03-06T03:25:25.147Z,20.05
2018-03-06T03:26:28.945Z,20.27
2018-03-06T03:27:33.637Z,20.40
2018-03-06T03:28:38.290Z,18.52
2018-03-06T03:29:42.249Z,18.90
2018-03-06T03:30:46.253Z,19.50
2018-03-06T03:31:50.142Z,19.40
2018-03-06T03:32:54.353Z,19.98
2018-03-06T03:33:58.447Z,20.75
2018-03-06T03:35:02.556Z,20.10
2018-03-06T03:36:06.660Z,20.73
2018-03-06T03:37:10.717Z,18.95
2018-03-06T03:38:15.008Z,19.80
2018-03-06T03:39:19.784Z,21.20
2018-03-06T03:40:25.688Z,20.83
2018-03-06T03:41:30.143Z,20.92
2018-03-06T03:42:35.145Z,19.05
2018-03-06T03:43:39.519Z,20.50
2018-03-06T03:44:43.806Z,19.55
2018-03-06T03:45:49.472Z,20.55
2018-03-06T03:46:54.105Z,20.10
2018-03-06T03:47:58.020Z,19.52
2018-03-06T03:49:01.979Z,20.30
2018-03-06T03:50:06.439Z,20.45
2018-03-06T03:51:10.364Z,19.55
2018-03-06T03:52:14.948Z,19.73
2018-03-06T03:53:19.264Z,19.20
2018-03-06T03:54:23.138Z,19.77
2018-03-06T03:55:27.029Z,36.80
2018-03-06T03:56:32.775Z,23.17
2018-03-06T03:57:37.030Z,22.30
2018-03-06T03:58:41.723Z,21.67
2018-03-06T03:59:45.764Z,22.40
2018-03-06T04:00:50.074Z,22.92
2018-03-06T04:01:54.180Z,20.62
2018-03-06T04:02:58.258Z,19.40
2018-03-06T04:04:02.305Z,20.10
2018-03-06T04:05:06.425Z,20.27
2018-03-06T04:06:11.262Z,20.40
2018-03-06T04:07:15.349Z,21.25
2018-03-06T04:08:20.202Z,20.48
2018-03-06T04:09:24.226Z,19.77
2018-03-06T04:10:28.320Z,19.70
2018-03-06T04:11:32.348Z,20.17
2018-03-06T04:12:36.425Z,20.97
2018-03-06T04:13:40.485Z,21.07
2018-03-06T04:14:44.523Z,20.37
2018-03-06T04:15:48.345Z,21.35
2018-03-06T04:16:52.243Z,20.33
2018-03-06T04:17:56.085Z,21.30
2018-03-06T04:19:00.871Z,21.48
2018-03-06T04:20:04.916Z,20.27
2018-03-06T04:21:08.789Z,21.33
2018-03-06T04:22:12.704Z,20.30
2018-03-06T04:23:16.660Z,21.67
2018-03-06T04:24:20.745Z,20.65
2018-03-06T04:25:24.847Z,21.00
2018-03-06T04:26:28.699Z,21.23
2018-03-06T04:27:32.626Z,21.77
2018-03-06T04:28:36.569Z,21.42
2018-03-06T04:29:40.670Z,22.00
2018-03-06T04:30:44.518Z,21.30
2018-03-06T04:31:48.661Z,20.75
2018-03-06T04:32:52.527Z,21.10
2018-03-06T04:33:56.650Z,21.70
2018-03-06T04:35:00.551Z,20.95
2018-03-06T04:36:04.438Z,20.33
2018-03-06T04:37:08.319Z,21.62
2018-03-06T04:38:12.134Z,21.83
2018-03-06T04:39:16.045Z,20.80
2018-03-06T04:40:19.917Z,21.00
2018-03-06T04:41:23.803Z,21.65
2018-03-06T04:42:27.652Z,22.58
2018-03-06T04:43:31.577Z,21.65
2018-03-06T04:44:35.429Z,20.63
2018-03-06T04:45:39.312Z,22.02
2018-03-06T04:46:43.428Z,20.30
2018-03-06T04:47:47.293Z,21.55
2018-03-06T04:48:51.110Z,20.95
2018-03-06T04:49:55.000Z,21.60
2018-03-06T04:50:59.102Z,21.02
2018-03-06T04:52:03.237Z,20.75
2018-03-06T04:53:09.456Z,21.35
2018-03-06T04:54:13.552Z,21.40
2018-03-06T04:55:17.805Z,21.75
2018-03-06T04:56:22.057Z,21.27
2018-03-06T04:57:26.089Z,21.62
2018-03-06T04:58:30.870Z,21.77
2018-03-06T04:59:35.064Z,21.48
2018-03-06T05:00:39.250Z,22.70
2018-03-06T05:01:43.539Z,23.10
2018-03-06T05:02:47.821Z,22.42
2018-03-06T05:03:52.448Z,21.92
2018-03-06T05:04:56.698Z,21.95
2018-03-06T05:06:00.955Z,21.00
2018-03-06T05:07:05.245Z,22.60
2018-03-06T05:08:09.769Z,21.37
2018-03-06T05:09:14.748Z,22.55
2018-03-06T05:10:19.186Z,22.48
2018-03-06T05:11:23.609Z,21.80
2018-03-06T05:12:27.665Z,21.45
2018-03-06T05:13:31.766Z,21.70
2018-03-06T05:14:36.013Z,21.50
2018-03-06T05:15:40.149Z,22.58
2018-03-06T05:16:44.410Z,22.58
2018-03-06T05:17:49.055Z,22.83
2018-03-06T05:18:53.283Z,21.80
2018-03-06T05:19:57.486Z,22.52
2018-03-06T05:21:02.280Z,22.62
2018-03-06T05:22:06.493Z,21.90
2018-03-06T05:23:10.957Z,23.40
2018-03-06T05:24:15.164Z,22.40
2018-03-06T05:25:19.424Z,23.08
2018-03-06T05:26:24.165Z,22.65
2018-03-06T05:27:28.101Z,22.70
2018-03-06T05:28:33.292Z,22.37
2018-03-06T05:29:39.484Z,23.85
2018-03-06T05:30:43.905Z,22.70
2018-03-06T05:31:49.061Z,23.50
2018-03-06T05:32:54.264Z,22.37
2018-03-06T05:33:58.853Z,22.23
2018-03-06T05:35:03.610Z,23.40
2018-03-06T05:36:08.588Z,23.23
2018-03-06T05:37:13.167Z,44.53
2018-03-06T05:38:18.189Z,29.17
2018-03-06T05:39:23.093Z,26.90
2018-03-06T05:40:28.930Z,25.00
2018-03-06T05:41:33.212Z,25.33
2018-03-06T05:42:37.945Z,23.38
2018-03-06T05:43:42.210Z,23.67
2018-03-06T05:44:46.491Z,24.10
2018-03-06T05:45:50.818Z,23.00
2018-03-06T05:46:56.040Z,23.93
2018-03-06T05:48:01.358Z,23.97
2018-03-06T05:49:06.823Z,24.55
2018-03-06T05:50:11.148Z,24.55
2018-03-06T05:51:15.527Z,26.10
2018-03-06T05:52:19.883Z,25.17
2018-03-06T05:53:24.191Z,26.20
2018-03-06T05:54:29.046Z,24.90
2018-03-06T05:55:33.451Z,23.50
2018-03-06T05:56:40.551Z,24.52
2018-03-06T05:57:44.711Z,26.55
2018-03-06T05:58:49.790Z,25.55
2018-03-06T05:59:54.306Z,25.50
2018-03-06T06:00:58.435Z,25.53
2018-03-06T06:02:02.719Z,25.80
2018-03-06T06:03:06.824Z,26.70
2018-03-06T06:04:11.006Z,26.62
2018-03-06T06:05:14.902Z,24.55
2018-03-06T06:06:19.218Z,25.40
2018-03-06T06:07:24.419Z,25.60
2018-03-06T06:16:06.590Z,27.08
2018-03-06T06:17:10.639Z,26.17
2018-03-06T06:18:14.672Z,25.50
2018-03-06T06:19:18.794Z,24.67
2018-03-06T06:20:22.785Z,26.05
2018-03-06T06:21:26.845Z,26.33
2018-03-06T06:22:30.923Z,26.75
2018-03-06T06:23:34.889Z,25.70
2018-03-06T06:24:39.015Z,27.90
2018-03-06T06:25:42.865Z,27.25
2018-03-06T06:26:47.581Z,26.67
2018-03-06T06:27:51.474Z,35.58
2018-03-06T06:28:56.258Z,44.85
2018-03-06T06:30:00.065Z,36.22
2018-03-06T06:31:03.929Z,30.20
2018-03-06T06:32:08.011Z,25.77
2018-03-06T06:33:13.353Z,27.48
2018-03-06T06:34:17.413Z,27.15
2018-03-06T06:35:22.093Z,26.85
2018-03-06T06:36:26.824Z,27.77
2018-03-06T06:37:30.665Z,27.17
2018-03-06T06:38:34.465Z,27.20
2018-03-06T06:39:38.463Z,28.33
2018-03-06T06:40:42.640Z,28.27
2018-03-06T06:41:47.448Z,28.60
2018-03-06T06:42:51.527Z,28.67
2018-03-06T06:43:55.592Z,27.70
2018-03-06T06:44:59.974Z,27.55
2018-03-06T06:46:04.949Z,26.73
2018-03-06T06:47:08.979Z,26.92
2018-03-06T06:48:13.136Z,28.33
2018-03-06T06:49:17.278Z,28.17
2018-03-06T06:50:21.161Z,28.30
2018-03-06T06:51:24.994Z,29.92
2018-03-06T06:52:29.643Z,27.90
2018-03-06T06:53:33.671Z,27.25
2018-03-06T06:54:37.589Z,26.65
2018-03-06T06:55:41.468Z,27.58
2018-03-06T06:56:45.292Z,28.10
2018-03-06T06:57:49.909Z,30.33
2018-03-06T06:58:54.641Z,29.35
2018-03-06T06:59:59.259Z,29.30
2018-03-06T07:01:03.885Z,27.95
2018-03-06T07:02:07.850Z,28.70
2018-03-06T07:03:11.999Z,28.48
2018-03-06T07:04:15.893Z,31.00
2018-03-06T07:05:19.718Z,28.65
2018-03-06T07:06:23.551Z,29.17
2018-03-06T07:07:28.210Z,30.05
2018-03-06T07:08:32.024Z,30.00
2018-03-06T07:09:35.897Z,28.05
2018-03-06T07:10:39.693Z,29.67
2018-03-06T07:11:43.521Z,29.00
2018-03-06T07:12:47.390Z,28.75
2018-03-06T07:13:51.199Z,28.90
2018-03-06T07:14:55.061Z,27.70
2018-03-06T07:15:58.937Z,29.95
2018-03-06T07:17:03.548Z,28.65
2018-03-06T07:18:08.100Z,29.65
2018-03-06T07:19:11.990Z,28.67
2018-03-06T07:20:16.057Z,29.00
2018-03-06T07:21:20.820Z,28.33
2018-03-06T07:22:24.598Z,28.50
2018-03-06T07:23:28.581Z,30.65
2018-03-06T07:24:33.309Z,29.52
2018-03-06T07:25:37.333Z,30.70
2018-03-06T07:26:41.350Z,29.77
2018-03-06T07:27:46.142Z,30.48
2018-03-06T07:28:50.319Z,29.85
2018-03-06T07:29:55.153Z,33.15
2018-03-06T07:30:58.990Z,31.52
2018-03-06T07:32:02.912Z,44.55
2018-03-06T07:33:06.786Z,31.58
2018-03-06T07:34:10.786Z,30.60
2018-03-06T07:35:14.604Z,29.48
2018-03-06T07:36:18.813Z,29.60
2018-03-06T07:37:23.469Z,29.30
2018-03-06T07:38:27.289Z,30.83
2018-03-06T07:39:31.173Z,30.20
2018-03-06T07:40:35.099Z,31.42
2018-03-06T07:41:38.913Z,32.67
2018-03-06T07:42:42.777Z,31.05
2018-03-06T07:43:46.630Z,30.83
2018-03-06T07:44:50.443Z,31.00
2018-03-06T07:45:54.369Z,30.50
2018-03-06T07:46:58.237Z,29.75
2018-03-06T07:48:02.052Z,31.02
2018-03-06T07:49:05.931Z,31.40
2018-03-06T07:50:09.834Z,30.53
2018-03-06T07:51:13.920Z,30.25
2018-03-06T07:52:18.997Z,32.42
2018-03-06T07:53:23.025Z,32.80
2018-03-06T07:54:27.891Z,31.30
2018-03-06T07:55:32.171Z,31.12
2018-03-06T07:56:36.645Z,31.70
2018-03-06T07:57:40.754Z,31.25
2018-03-06T07:58:44.858Z,29.40
2018-03-06T07:59:48.951Z,31.83
2018-03-06T08:00:53.015Z,32.65
2018-03-06T08:01:57.810Z,33.08
2018-03-06T08:03:02.614Z,32.10
2018-03-06T08:04:07.409Z,31.58
2018-03-06T08:05:11.769Z,31.02
2018-03-06T08:06:15.852Z,31.33
2018-03-06T08:07:19.791Z,30.90
2018-03-06T08:08:23.821Z,32.75
2018-03-06T08:09:28.156Z,37.92
2018-03-06T08:10:32.485Z,35.00
2018-03-06T08:11:36.694Z,33.17
2018-03-06T08:12:40.719Z,33.75
2018-03-06T08:13:44.721Z,32.60
2018-03-06T08:14:48.980Z,30.35
2018-03-06T08:15:53.701Z,30.33
2018-03-06T08:16:57.717Z,31.85
2018-03-06T08:18:01.632Z,35.17
2018-03-06T08:19:05.529Z,42.45
2018-03-06T08:20:10.146Z,32.03
2018-03-06T08:21:14.014Z,33.28
2018-03-06T08:22:17.945Z,33.30
2018-03-06T08:23:21.775Z,31.83
2018-03-06T08:24:26.446Z,32.00
2018-03-06T08:25:33.374Z,33.50
2018-03-06T08:26:37.365Z,31.50
2018-03-06T08:27:42.027Z,31.42
2018-03-06T08:28:45.898Z,32.60
2018-03-06T08:29:50.565Z,33.60
2018-03-06T08:30:55.253Z,32.55
2018-03-06T08:31:59.152Z,32.10
2018-03-06T08:33:03.101Z,32.55
2018-03-06T08:34:07.759Z,31.05
2018-03-06T08:35:11.599Z,32.55
2018-03-06T08:36:16.418Z,33.95
2018-03-06T08:37:21.137Z,33.35
2018-03-06T08:38:25.998Z,33.70
2018-03-06T08:39:30.032Z,32.90
2018-03-06T08:40:34.094Z,31.77
2018-03-06T08:41:38.154Z,30.65
2018-03-06T08:42:42.195Z,33.13
2018-03-06T08:43:46.167Z,33.58
2018-03-06T08:44:50.970Z,32.38
2018-03-06T08:45:54.948Z,32.03
2018-03-06T08:46:58.823Z,54.58
2018-03-06T08:48:02.696Z,36.63
2018-03-06T08:49:06.713Z,33.70
2018-03-06T08:50:10.529Z,30.70
2018-03-06T08:51:14.713Z,32.78
2018-03-06T08:52:18.602Z,32.70
2018-03-06T08:53:22.546Z,32.88
2018-03-06T08:54:26.902Z,31.10
2018-03-06T08:55:30.965Z,32.00
2018-03-06T08:56:38.637Z,34.17
2018-03-06T08:57:42.713Z,33.22
2018-03-06T08:58:46.677Z,33.67
2018-03-06T08:59:51.553Z,32.63
2018-03-06T09:00:55.538Z,31.85
2018-03-06T09:01:59.609Z,33.95
2018-03-06T09:03:03.577Z,33.03
2018-03-06T09:04:08.386Z,33.50
2018-03-06T09:05:12.342Z,31.90
2018-03-06T09:06:16.582Z,32.83
2018-03-06T09:07:20.591Z,32.50
2018-03-06T09:08:24.693Z,34.70
2018-03-06T09:09:28.701Z,33.03
2018-03-06T09:10:33.422Z,32.67
2018-03-06T09:11:38.241Z,34.80
2018-03-06T09:12:42.974Z,33.10
2018-03-06T09:13:47.206Z,34.50
2018-03-06T09:14:52.388Z,32.50
2018-03-06T09:15:57.174Z,34.67
2018-03-06T09:17:01.272Z,33.35
2018-03-06T09:18:05.336Z,33.33
2018-03-06T09:19:09.392Z,37.22
2018-03-06T09:20:13.464Z,51.15
2018-03-06T09:21:18.135Z,35.13
2018-03-06T09:22:23.874Z,33.33
2018-03-06T09:23:28.696Z,33.75
2018-03-06T09:24:33.609Z,33.90
2018-03-06T09:25:37.605Z,33.37
2018-03-06T09:26:42.724Z,33.33
2018-03-06T09:27:47.485Z,36.15
2018-03-06T09:28:51.552Z,41.28
2018-03-06T09:29:56.305Z,35.05
2018-03-06T09:31:01.045Z,34.47
2018-03-06T09:32:05.087Z,34.67
2018-03-06T09:33:09.950Z,35.58
2018-03-06T09:34:13.945Z,34.58
2018-03-06T09:35:17.942Z,34.55
2018-03-06T09:36:21.971Z,35.27
2018-03-06T09:37:25.981Z,33.70
2018-03-06T09:38:30.776Z,33.72
2018-03-06T09:39:34.817Z,34.45
2018-03-06T09:40:39.570Z,33.13
2018-03-06T09:41:43.596Z,34.20
2018-03-06T09:42:47.600Z,35.00
2018-03-06T09:43:51.579Z,33.47
2018-03-06T09:44:55.632Z,33.20
2018-03-06T09:45:59.674Z,37.72
2018-03-06T09:47:03.761Z,41.47
2018-03-06T09:48:07.829Z,43.87
2018-03-06T09:49:12.173Z,34.20
2018-03-06T09:50:16.169Z,32.83
2018-03-06T09:51:21.002Z,33.15
2018-03-06T09:52:25.090Z,32.97
2018-03-06T09:53:29.824Z,33.03
2018-03-06T09:54:33.939Z,34.78
2018-03-06T09:55:37.978Z,33.60
2018-03-06T09:56:41.997Z,33.13
2018-03-06T09:57:46.749Z,34.28
2018-03-06T09:58:50.874Z,34.80
2018-03-06T09:59:54.935Z,34.10
2018-03-06T10:00:58.922Z,34.95
2018-03-06T10:02:03.805Z,35.55
2018-03-06T10:03:07.756Z,36.40
2018-03-06T10:04:11.621Z,33.83
2018-03-06T10:05:15.560Z,33.63
2018-03-06T10:06:19.572Z,34.92
2018-03-06T10:07:23.579Z,33.25
2018-03-06T10:08:27.585Z,33.78
2018-03-06T10:09:31.570Z,34.78
2018-03-06T10:10:35.641Z,33.72
2018-03-06T10:11:39.717Z,32.90
2018-03-06T10:12:43.668Z,31.97
2018-03-06T10:13:47.728Z,33.75
2018-03-06T10:14:51.852Z,33.90
2018-03-06T10:15:55.811Z,32.78
2018-03-06T10:16:59.731Z,32.83
2018-03-06T10:18:04.404Z,32.63
2018-03-06T10:19:08.328Z,32.47
2018-03-06T10:20:12.301Z,32.58
2018-03-06T10:21:16.134Z,32.80
2018-03-06T10:22:20.743Z,32.70
2018-03-06T10:23:25.540Z,33.80
2018-03-06T10:24:29.627Z,32.40
2018-03-06T10:25:33.858Z,33.15
2018-03-06T10:26:37.770Z,33.85
2018-03-06T10:27:42.385Z,45.95
2018-03-06T10:28:47.068Z,32.40
2018-03-06T10:29:51.153Z,31.30
2018-03-06T10:30:55.306Z,30.52
2018-03-06T10:31:59.998Z,31.20
2018-03-06T10:33:03.819Z,31.85
2018-03-06T10:34:07.933Z,30.80
2018-03-06T10:35:13.084Z,31.63
2018-03-06T10:36:17.334Z,30.40
2018-03-06T10:37:21.243Z,31.37
2018-03-06T10:38:25.282Z,30.77
2018-03-06T10:39:29.357Z,29.73
2018-03-06T10:40:33.438Z,30.45
2018-03-06T10:41:37.292Z,33.28
2018-03-06T10:42:41.158Z,31.35
2018-03-06T10:43:45.219Z,31.03
2018-03-06T10:44:49.455Z,32.10
2018-03-06T10:45:54.331Z,32.63
2018-03-06T10:46:58.420Z,32.80
2018-03-06T10:48:02.566Z,35.20
2018-03-06T10:49:07.109Z,32.85
2018-03-06T10:50:12.089Z,32.80
2018-03-06T10:51:16.138Z,30.02
2018-03-06T10:52:20.174Z,30.25
2018-03-06T10:53:24.241Z,30.27
2018-03-06T10:54:29.109Z,30.65
2018-03-06T10:55:33.168Z,30.77
2018-03-06T10:56:37.003Z,31.08
2018-03-06T10:57:40.817Z,28.75
2018-03-06T10:58:44.708Z,30.05
2018-03-06T10:59:48.583Z,30.60
2018-03-06T11:00:54.567Z,30.00
2018-03-06T11:01:59.567Z,30.48
2018-03-06T11:03:04.427Z,30.95
2018-03-06T11:04:09.051Z,30.97
2018-03-06T11:05:13.439Z,30.73
2018-03-06T11:06:18.369Z,31.02
2018-03-06T11:07:23.006Z,31.05
2018-03-06T11:08:26.806Z,29.52
2018-03-06T11:09:30.713Z,27.02
2018-03-06T11:10:34.553Z,28.38
2018-03-06T11:11:38.504Z,29.15
2018-03-06T11:12:42.508Z,30.25
2018-03-06T11:13:46.402Z,29.40
2018-03-06T11:14:50.293Z,30.05
2018-03-06T11:15:54.463Z,28.38
2018-03-06T11:16:59.412Z,53.00
2018-03-06T11:18:03.435Z,35.90
2018-03-06T11:19:07.416Z,29.70
2018-03-06T11:20:11.485Z,29.70
2018-03-06T11:21:16.294Z,29.85
2018-03-06T11:22:20.195Z,31.70
2018-03-06T11:23:24.133Z,30.45
2018-03-06T11:24:28.038Z,27.83
2018-03-06T11:25:31.891Z,27.53
2018-03-06T11:26:36.124Z,28.77
2018-03-06T11:27:40.825Z,27.55
2018-03-06T11:28:45.524Z,28.00
2018-03-06T11:29:49.642Z,28.90
2018-03-06T11:30:55.014Z,29.12
2018-03-06T11:31:59.073Z,29.08
2018-03-06T11:33:04.018Z,27.87
2018-03-06T11:34:08.119Z,29.05
2018-03-06T11:35:12.176Z,30.17
2018-03-06T11:36:16.674Z,30.00
2018-03-06T11:37:20.928Z,29.75
2018-03-06T11:38:24.756Z,28.73
2018-03-06T11:39:28.815Z,29.12
2018-03-06T11:40:33.577Z,25.98
2018-03-06T11:41:37.619Z,27.75
2018-03-06T11:42:41.763Z,27.87
2018-03-06T11:43:45.906Z,27.90
2018-03-06T11:44:49.901Z,28.85
2018-03-06T11:45:53.960Z,27.55
2018-03-06T11:46:58.052Z,27.45
2018-03-06T11:48:02.110Z,28.50
2018-03-06T11:49:06.240Z,29.13
2018-03-06T11:50:11.112Z,26.62
2018-03-06T11:51:15.257Z,28.87
2018-03-06T11:52:20.113Z,27.20
2018-03-06T11:53:24.172Z,29.15
2018-03-06T11:54:28.228Z,27.65
2018-03-06T11:55:32.568Z,26.23
2018-03-06T11:56:36.729Z,26.37
2018-03-06T11:57:40.855Z,25.30
2018-03-06T11:58:44.855Z,25.93
2018-03-06T11:59:48.770Z,26.30
2018-03-06T12:00:52.678Z,26.25
2018-03-06T12:01:56.790Z,25.60
2018-03-06T12:03:01.514Z,24.37
2018-03-06T12:04:06.197Z,26.12
2018-03-06T12:05:10.468Z,25.73
2018-03-06T12:06:14.875Z,27.02
2018-03-06T12:07:19.030Z,24.33
2018-03-06T12:08:23.118Z,24.70
2018-03-06T12:09:29.996Z,25.33
2018-03-06T12:10:34.017Z,23.43
2018-03-06T12:11:38.877Z,23.00
2018-03-06T12:12:42.902Z,23.10
2018-03-06T12:13:47.255Z,23.05
2018-03-06T12:14:51.407Z,22.30
2018-03-06T12:15:55.504Z,22.90
2018-03-06T12:16:59.541Z,24.52
2018-03-06T12:18:04.232Z,23.58
2018-03-06T12:19:08.156Z,23.50
2018-03-06T12:20:12.873Z,25.12
2018-03-06T12:21:17.756Z,23.77
2018-03-06T12:22:21.625Z,24.15
2018-03-06T12:23:25.553Z,23.30
2018-03-06T12:24:29.444Z,24.23
2018-03-06T12:25:33.888Z,24.02
2018-03-06T12:26:38.619Z,25.10
2018-03-06T12:27:43.314Z,24.58
2018-03-06T12:28:47.239Z,24.87
2018-03-06T12:29:51.213Z,25.27
2018-03-06T12:30:56.113Z,24.80
2018-03-06T12:32:00.012Z,25.08
2018-03-06T12:33:04.044Z,24.27
2018-03-06T12:34:08.380Z,21.93
2018-03-06T12:35:12.746Z,23.80
2018-03-06T12:36:17.494Z,23.50
2018-03-06T12:37:21.917Z,24.67
2018-03-06T12:38:26.217Z,24.33
2018-03-06T12:39:30.310Z,24.48
2018-03-06T12:40:35.277Z,24.50
2018-03-06T12:41:43.926Z,24.60
2018-03-06T12:42:51.927Z,23.50
2018-03-06T12:43:56.748Z,25.40
2018-03-06T12:45:01.356Z,23.83
2018-03-06T12:46:05.273Z,24.58
2018-03-06T12:47:09.168Z,25.03
2018-03-06T12:48:13.004Z,25.55
2018-03-06T12:49:17.101Z,23.58
2018-03-06T12:50:21.480Z,25.20
2018-03-06T12:51:26.211Z,24.23
2018-03-06T12:52:30.265Z,25.17
2018-03-06T12:53:34.367Z,24.83
2018-03-06T12:54:38.435Z,24.08
2018-03-06T12:55:43.130Z,24.50
2018-03-06T12:56:47.889Z,25.30
2018-03-06T12:57:51.884Z,24.95
2018-03-06T12:58:55.914Z,25.00
2018-03-06T13:00:00.948Z,23.85
2018-03-06T13:01:05.896Z,24.37
2018-03-06T13:02:10.024Z,23.20
2018-03-06T13:03:14.060Z,24.50
2018-03-06T13:04:18.924Z,23.80
2018-03-06T13:05:22.932Z,24.25
2018-03-06T13:06:27.006Z,23.38
2018-03-06T13:07:31.085Z,23.62
2018-03-06T13:08:37.530Z,23.95
2018-03-06T13:09:42.339Z,23.38
2018-03-06T13:10:46.344Z,24.10
2018-03-06T13:11:51.074Z,24.85
2018-03-06T13:12:56.602Z,24.52
2018-03-06T13:14:00.521Z,23.58
2018-03-06T13:15:04.569Z,24.08
2018-03-06T13:16:08.606Z,22.87
2018-03-06T13:17:13.788Z,24.75
2018-03-06T13:18:17.944Z,22.52
2018-03-06T13:19:24.038Z,23.65
2018-03-06T13:20:27.884Z,24.17
2018-03-06T13:21:37.798Z,24.12
2018-03-06T13:22:41.879Z,24.17
2018-03-06T13:23:45.710Z,23.95
2018-03-06T13:24:49.681Z,24.48
2018-03-06T13:25:53.574Z,24.40
2018-03-06T13:26:58.055Z,23.55
2018-03-06T13:28:02.910Z,25.60
2018-03-06T13:29:07.020Z,24.35
2018-03-06T13:30:11.681Z,24.20
2018-03-06T13:31:15.882Z,24.55
2018-03-06T13:32:21.114Z,24.90
2018-03-06T13:33:26.745Z,24.67
2018-03-06T13:34:31.677Z,23.85
2018-03-06T13:35:36.265Z,43.08
2018-03-06T13:36:41.020Z,25.30
2018-03-06T13:37:44.933Z,25.40
2018-03-06T13:38:48.927Z,46.95
2018-03-06T13:39:52.826Z,27.05
2018-03-06T13:40:56.768Z,25.70
2018-03-06T13:42:01.441Z,24.90
2018-03-06T13:43:05.441Z,25.75
2018-03-06T13:44:09.439Z,25.77
2018-03-06T13:45:13.264Z,25.80
2018-03-06T13:46:17.086Z,25.52
2018-03-06T13:47:22.195Z,24.23
2018-03-06T13:48:27.203Z,25.17
2018-03-06T13:49:32.969Z,25.20
2018-03-06T13:50:45.639Z,25.60
2018-03-06T13:51:49.643Z,24.92
2018-03-06T13:52:53.783Z,24.12
2018-03-06T13:53:58.732Z,25.12
2018-03-06T13:55:02.851Z,29.30
2018-03-06T13:56:07.327Z,26.17
2018-03-06T13:57:12.160Z,24.60
2018-03-06T13:58:16.290Z,23.85
2018-03-06T13:59:20.350Z,24.95